createdAt,value
2019-04-22T00:02:06.015Z,101557.14
2019-04-22T00:04:10.848Z,101558.55
2019-04-22T00:06:32.782Z,101556.85
2019-04-22T00:08:36.205Z,101552.56
2019-04-22T00:10:47.045Z,101553.06
2019-04-22T00:12:47.091Z,101547.62
2019-04-22T00:14:42.020Z,101548.74
2019-04-22T00:16:53.264Z,101544.38
2019-04-22T00:19:09.380Z,101542.73
2019-04-22T00:20:58.230Z,101546.63
2019-04-22T00:23:03.690Z,101544.52
2019-04-22T00:25:08.323Z,101545.80
2019-04-22T00:27:13.835Z,101538.31
2019-04-22T00:29:37.085Z,101534.81
2019-04-22T00:31:38.531Z,101539.83
2019-04-22T00:33:34.296Z,101540.42
2019-04-22T00:35:35.461Z,101540.84
2019-04-22T00:37:43.460Z,101541.53
2019-04-22T00:39:46.341Z,101539.00
2019-04-22T00:41:52.084Z,101547.18
2019-04-22T00:43:58.199Z,101543.64
2019-04-22T00:45:55.925Z,101538.73
2019-04-22T00:48:01.087Z,101544.94
2019-04-22T00:50:20.930Z,101541.61
2019-04-22T00:52:10.882Z,101543.91
2019-04-22T00:54:07.260Z,101541.98
2019-04-22T00:56:15.719Z,101540.06
2019-04-22T00:58:17.817Z,101538.58
2019-04-22T01:00:21.319Z,101540.44
2019-04-22T01:02:27.482Z,101538.97
2019-04-22T01:04:34.672Z,101535.27
2019-04-22T01:06:47.215Z,101535.75
2019-04-22T01:08:40.274Z,101530.28
2019-04-22T01:10:40.735Z,101536.20
2019-04-22T01:12:39.192Z,101530.95
2019-04-22T01:14:41.732Z,101529.62
2019-04-22T01:16:48.904Z,101528.39
2019-04-22T01:18:49.043Z,101524.14
2019-04-22T01:21:13.611Z,101529.38
2019-04-22T01:22:58.954Z,101529.97
2019-04-22T01:25:02.446Z,101523.17
2019-04-22T01:27:00.497Z,101521.08
2019-04-22T01:29:01.076Z,101522.36
2019-04-22T01:31:01.974Z,101521.77
2019-04-22T01:33:08.300Z,101519.66
2019-04-22T01:35:12.956Z,101514.33
2019-04-22T01:37:23.994Z,101513.18
2019-04-22T01:39:31.899Z,101510.38
2019-04-22T01:41:42.294Z,101510.80
2019-04-22T01:43:54.450Z,101507.30
2019-04-22T01:45:47.980Z,101503.63
2019-04-22T01:48:03.922Z,101503.05
2019-04-22T01:49:46.392Z,101507.64
2019-04-22T01:52:02.947Z,101510.14
2019-04-22T01:54:03.910Z,101509.18
2019-04-22T01:56:01.876Z,101508.02
2019-04-22T01:58:04.540Z,101508.66
2019-04-22T02:00:00.980Z,101511.21
2019-04-22T02:02:14.358Z,101513.41
2019-04-22T02:04:17.366Z,101510.05
2019-04-22T02:06:27.678Z,101509.32
2019-04-22T02:08:33.356Z,101507.55
2019-04-22T02:10:32.322Z,101506.56
2019-04-22T02:12:25.664Z,101503.59
2019-04-22T02:14:37.371Z,101506.84
2019-04-22T02:16:34.277Z,101503.22
2019-04-22T02:18:39.415Z,101499.47
2019-04-22T02:20:43.256Z,101495.75
2019-04-22T02:25:26.704Z,101500.61
2019-04-22T02:27:35.368Z,101496.84
2019-04-22T02:29:29.967Z,101496.12
2019-04-22T02:31:51.026Z,101498.82
2019-04-22T02:34:01.278Z,101489.64
2019-04-22T02:36:01.903Z,101494.84
2019-04-22T02:37:46.226Z,101489.48
2019-04-22T02:41:50.909Z,101485.28
2019-04-22T02:48:18.382Z,101477.36
2019-04-22T02:52:15.697Z,101475.75
2019-04-22T02:54:36.587Z,101474.56
2019-04-22T02:56:27.280Z,101476.94
2019-04-22T02:58:25.680Z,101472.16
2019-04-22T03:02:43.049Z,101465.58
2019-04-22T03:04:22.859Z,101463.69
2019-04-22T03:08:39.659Z,101455.63
2019-04-22T03:12:48.221Z,101454.78
2019-04-22T03:21:07.021Z,101466.86
2019-04-22T03:25:33.019Z,101468.39
2019-04-22T03:27:08.141Z,101467.69
2019-04-22T03:29:28.238Z,101467.33
2019-04-22T03:31:55.130Z,101466.74
2019-04-22T03:33:43.645Z,101468.89
2019-04-22T03:35:57.478Z,101464.55
2019-04-22T03:41:57.208Z,101470.16
2019-04-22T03:44:10.556Z,101464.00
2019-04-22T03:45:37.956Z,101465.36
2019-04-22T03:48:02.795Z,101463.11
2019-04-22T03:50:11.204Z,101468.03
2019-04-22T03:52:15.787Z,101467.22
2019-04-22T03:54:17.371Z,101471.17
2019-04-22T03:56:04.008Z,101463.28
2019-04-22T03:58:20.846Z,101464.95
2019-04-22T04:02:29.325Z,101466.52
2019-04-22T04:04:23.978Z,101469.86
2019-04-22T04:06:34.652Z,101471.14
2019-04-22T04:08:33.419Z,101466.33
2019-04-22T04:12:42.039Z,101467.44
2019-04-22T04:14:46.452Z,101465.20
2019-04-22T04:16:47.743Z,101470.92
2019-04-22T04:22:59.031Z,101466.66
2019-04-22T04:27:06.739Z,101472.46
2019-04-22T04:29:22.984Z,101472.75
2019-04-22T04:31:09.463Z,101470.11
2019-04-22T04:33:21.164Z,101472.69
2019-04-22T04:37:38.925Z,101475.74
2019-04-22T04:39:22.080Z,101480.44
2019-04-22T04:41:27.107Z,101476.59
2019-04-22T04:43:25.956Z,101481.18
2019-04-22T04:45:38.553Z,101478.05
2019-04-22T04:47:42.786Z,101478.77
2019-04-22T04:51:38.474Z,101479.05
2019-04-22T04:53:53.486Z,101471.14
2019-04-22T04:56:08.356Z,101473.98
2019-04-22T04:58:10.145Z,101475.85
2019-04-22T05:00:29.906Z,101466.36
2019-04-22T05:01:55.210Z,101465.86
2019-04-22T05:04:04.704Z,101470.39
2019-04-22T05:06:10.728Z,101458.59
2019-04-22T05:08:01.046Z,101459.62
2019-04-22T05:10:34.890Z,101457.37
2019-04-22T05:18:26.559Z,101456.30
2019-04-22T05:22:28.601Z,101453.09
2019-04-22T05:24:28.362Z,101449.12
2019-04-22T05:26:36.625Z,101449.83
2019-04-22T05:28:31.540Z,101448.95
2019-04-22T05:34:52.814Z,101457.67
2019-04-22T05:36:48.040Z,101457.11
2019-04-22T05:38:58.234Z,101461.90
2019-04-22T05:40:51.504Z,101456.20
2019-04-22T05:42:56.060Z,101476.34
2019-04-22T05:45:04.689Z,101472.56
2019-04-22T05:47:02.693Z,101471.24
2019-04-22T05:49:06.341Z,101472.80
2019-04-22T05:51:10.012Z,101461.80
2019-04-22T05:53:07.081Z,101461.18
2019-04-22T05:55:15.016Z,101470.47
2019-04-22T05:57:20.274Z,101466.41
2019-04-22T05:59:28.897Z,101465.22
2019-04-22T06:01:38.892Z,101460.81
2019-04-22T06:03:32.507Z,101461.69
2019-04-22T06:05:35.758Z,101470.25
2019-04-22T06:07:38.490Z,101461.16
2019-04-22T06:09:47.258Z,101465.48
2019-04-22T06:11:36.056Z,101465.13
2019-04-22T06:13:50.066Z,101465.73
2019-04-22T06:15:55.653Z,101467.69
2019-04-22T06:18:10.123Z,101466.81
2019-04-22T06:20:02.294Z,101465.89
2019-04-22T06:22:12.853Z,101462.61
2019-04-22T06:24:18.496Z,101455.16
2019-04-22T06:28:29.095Z,101449.24
2019-04-22T06:30:23.219Z,101451.08
2019-04-22T06:34:28.935Z,101443.98
2019-04-22T06:40:41.746Z,101453.06
2019-04-22T06:42:44.941Z,101441.98
2019-04-22T06:44:50.010Z,101446.08
2019-04-22T06:46:47.681Z,101444.37
2019-04-22T06:48:47.914Z,101453.80
2019-04-22T06:50:58.384Z,101450.17
2019-04-22T06:53:00.061Z,101447.73
2019-04-22T06:55:05.927Z,101454.77
2019-04-22T06:59:08.541Z,101459.09
2019-04-22T07:01:18.126Z,101454.33
2019-04-22T07:03:34.643Z,101453.37
2019-04-22T07:05:40.284Z,101455.78
2019-04-22T07:07:20.123Z,101443.97
2019-04-22T07:09:28.507Z,101453.87
2019-04-22T07:11:23.685Z,101445.36
2019-04-22T07:15:46.426Z,101452.23
2019-04-22T07:17:44.058Z,101455.66
2019-04-22T07:19:45.215Z,101447.48
2019-04-22T07:21:46.900Z,101448.17
2019-04-22T07:24:20.134Z,101451.11
2019-04-22T07:25:56.535Z,101452.69
2019-04-22T07:28:13.938Z,101456.33
2019-04-22T07:30:03.899Z,101449.08
2019-04-22T07:34:15.725Z,101446.55
2019-04-22T07:38:19.021Z,101449.28
2019-04-22T07:40:25.167Z,101443.95
2019-04-22T07:42:19.328Z,101452.48
2019-04-22T07:44:26.436Z,101447.61
2019-04-22T07:46:28.701Z,101446.28
2019-04-22T07:48:43.312Z,101447.41
2019-04-22T07:50:50.691Z,101439.54
2019-04-22T07:52:35.419Z,101440.45
2019-04-22T07:54:43.455Z,101441.59
2019-04-22T07:56:43.656Z,101439.94
2019-04-22T07:58:46.900Z,101438.52
2019-04-22T08:01:12.137Z,101435.44
2019-04-22T08:03:12.126Z,101428.06
2019-04-22T08:05:08.259Z,101439.44
2019-04-22T08:07:11.163Z,101431.45
2019-04-22T08:09:11.356Z,101430.89
2019-04-22T08:11:21.579Z,101436.13
2019-04-22T08:13:11.731Z,101435.50
2019-04-22T08:15:12.642Z,101435.70
2019-04-22T08:17:38.511Z,101438.31
2019-04-22T08:19:20.528Z,101434.10
2019-04-22T08:21:22.268Z,101437.42
2019-04-22T08:23:31.688Z,101439.23
2019-04-22T08:25:36.748Z,101438.53
2019-04-22T08:27:35.504Z,101440.69
2019-04-22T08:29:46.080Z,101439.27
2019-04-22T08:32:00.461Z,101438.33
2019-04-22T08:34:06.377Z,101434.75
2019-04-22T08:38:11.943Z,101438.49
2019-04-22T08:40:26.020Z,101436.45
2019-04-22T08:42:27.875Z,101428.95
2019-04-22T08:44:27.953Z,101434.50
2019-04-22T08:48:31.190Z,101426.55
2019-04-22T08:50:33.705Z,101434.36
2019-04-22T08:52:40.612Z,101426.87
2019-04-22T08:54:44.295Z,101423.57
2019-04-22T08:56:45.819Z,101426.08
2019-04-22T09:00:57.274Z,101428.16
2019-04-22T09:02:59.533Z,101432.78
2019-04-22T09:05:10.544Z,101425.20
2019-04-22T09:09:09.734Z,101422.44
2019-04-22T09:11:16.048Z,101415.82
2019-04-22T09:13:05.883Z,101420.05
2019-04-22T09:15:18.497Z,101416.31
2019-04-22T09:17:20.067Z,101417.06
2019-04-22T09:19:17.845Z,101418.41
2019-04-22T09:21:32.912Z,101411.86
2019-04-22T09:23:33.882Z,101410.10
2019-04-22T09:25:36.911Z,101409.74
2019-04-22T09:27:38.487Z,101413.17
2019-04-22T09:29:41.233Z,101412.14
2019-04-22T09:31:45.776Z,101407.31
2019-04-22T09:33:45.993Z,101406.72
2019-04-22T09:35:52.383Z,101402.27
2019-04-22T09:38:00.284Z,101401.32
2019-04-22T09:40:01.024Z,101399.25
2019-04-22T09:42:02.481Z,101396.03
2019-04-22T09:44:05.526Z,101398.89
2019-04-22T09:46:08.936Z,101393.27
2019-04-22T09:48:18.087Z,101397.98
2019-04-22T09:50:22.265Z,101403.52
2019-04-22T09:52:14.993Z,101390.66
2019-04-22T09:54:21.827Z,101395.97
2019-04-22T09:56:23.858Z,101388.98
2019-04-22T09:58:23.526Z,101391.12
2019-04-22T10:00:37.476Z,101388.72
2019-04-22T10:02:42.740Z,101385.44
2019-04-22T10:04:41.945Z,101383.92
2019-04-22T10:06:36.709Z,101380.49
2019-04-22T10:10:49.008Z,101380.61
2019-04-22T10:12:54.019Z,101365.96
2019-04-22T10:14:55.495Z,101374.38
2019-04-22T10:16:57.891Z,101365.37
2019-04-22T10:19:09.986Z,101363.27
2019-04-22T10:21:12.758Z,101362.86
2019-04-22T10:23:17.670Z,101360.56
2019-04-22T10:25:10.642Z,101360.89
2019-04-22T10:27:12.980Z,101355.39
2019-04-22T10:29:19.902Z,101356.19
2019-04-22T10:31:24.945Z,101355.56
2019-04-22T10:33:22.096Z,101346.50
2019-04-22T10:35:12.970Z,101348.40
2019-04-22T10:37:14.760Z,101349.59
2019-04-22T10:39:14.337Z,101348.45
2019-04-22T10:41:16.580Z,101336.55
2019-04-22T10:43:19.147Z,101344.06
2019-04-22T10:45:21.990Z,101334.57
2019-04-22T10:47:24.069Z,101338.91
2019-04-22T10:49:26.791Z,101327.17
2019-04-22T10:51:28.648Z,101326.91
2019-04-22T10:53:31.280Z,101321.17
2019-04-22T10:55:33.022Z,101321.19
2019-04-22T10:57:35.907Z,101310.18
2019-04-22T10:59:38.543Z,101320.73
2019-04-22T11:01:40.430Z,101310.42
2019-04-22T11:03:43.101Z,101305.41
2019-04-22T11:05:46.236Z,101302.98
2019-04-22T11:07:53.997Z,101298.27
2019-04-22T11:09:58.981Z,101302.66
2019-04-22T11:12:03.715Z,101303.17
2019-04-22T11:13:58.088Z,101298.94
2019-04-22T11:16:00.573Z,101295.27
2019-04-22T11:18:02.631Z,101301.26
2019-04-22T11:20:05.847Z,101292.83
2019-04-22T11:22:15.003Z,101288.37
2019-04-22T11:24:10.813Z,101284.14
2019-04-22T11:26:12.273Z,101276.72
2019-04-22T11:28:13.864Z,101281.23
2019-04-22T11:30:19.029Z,101280.29
2019-04-22T11:32:20.260Z,101285.56
2019-04-22T11:34:21.866Z,101281.12
2019-04-22T11:36:24.738Z,101281.77
2019-04-22T11:38:26.836Z,101276.81
2019-04-22T11:40:34.588Z,101275.16
2019-04-22T11:42:32.276Z,101279.20
2019-04-22T11:44:35.198Z,101278.63
2019-04-22T11:46:36.866Z,101272.27
2019-04-22T11:48:38.271Z,101263.53
2019-04-22T11:50:40.073Z,101262.19
2019-04-22T11:52:42.581Z,101265.20
2019-04-22T11:54:44.399Z,101264.75
2019-04-22T11:56:47.210Z,101263.38
2019-04-22T11:58:49.002Z,101259.75
2019-04-22T12:00:51.971Z,101257.14
2019-04-22T12:02:54.718Z,101253.34
2019-04-22T12:04:56.345Z,101256.14
2019-04-22T12:06:58.003Z,101258.95
2019-04-22T12:08:59.633Z,101245.06
2019-04-22T12:11:04.350Z,101257.45
2019-04-22T12:13:06.232Z,101249.12
2019-04-22T12:15:08.870Z,101253.73
2019-04-22T12:17:11.331Z,101255.13
2019-04-22T12:19:13.540Z,101254.22
2019-04-22T12:21:15.279Z,101244.67
2019-04-22T12:23:17.052Z,101240.66
2019-04-22T12:25:32.299Z,101242.31
2019-04-22T12:27:26.008Z,101231.48
2019-04-22T12:29:27.131Z,101238.46
2019-04-22T12:31:29.335Z,101237.58
2019-04-22T12:33:31.628Z,101240.75
2019-04-22T12:35:34.502Z,101234.63
2019-04-22T12:37:45.750Z,101237.63
2019-04-22T12:39:39.367Z,101224.52
2019-04-22T12:41:42.228Z,101225.98
2019-04-22T12:43:45.090Z,101217.16
2019-04-22T12:45:47.989Z,101217.88
2019-04-22T12:47:50.427Z,101212.66
2019-04-22T12:49:57.200Z,101211.25
2019-04-22T12:51:56.876Z,101196.31
2019-04-22T12:53:59.398Z,101206.64
2019-04-22T12:56:01.290Z,101191.69
2019-04-22T12:58:03.035Z,101194.23
2019-04-22T13:00:08.060Z,101189.68
2019-04-22T13:02:09.407Z,101198.44
2019-04-22T13:04:15.308Z,101192.88
2019-04-22T13:06:14.378Z,101191.38
2019-04-22T13:08:15.897Z,101186.70
2019-04-22T13:10:17.825Z,101192.45
2019-04-22T13:12:19.374Z,101185.66
2019-04-22T13:14:21.243Z,101183.33
2019-04-22T13:16:23.006Z,101185.05
2019-04-22T13:18:35.526Z,101165.37
2019-04-22T13:20:28.200Z,101166.77
2019-04-22T13:22:30.612Z,101167.98
2019-04-22T13:24:32.171Z,101171.12
2019-04-22T13:26:33.841Z,101177.09
2019-04-22T13:28:36.712Z,101165.29
2019-04-22T13:30:38.718Z,101159.23
2019-04-22T13:32:40.732Z,101153.40
2019-04-22T13:34:46.532Z,101165.28
2019-04-22T13:36:47.047Z,101160.18
2019-04-22T13:38:49.222Z,101155.25
2019-04-22T13:41:14.013Z,101146.89
2019-04-22T13:42:55.449Z,101147.28
2019-04-22T13:44:58.091Z,101144.49
2019-04-22T13:47:17.046Z,101140.41
2019-04-22T13:49:34.077Z,101146.50
2019-04-22T13:51:43.246Z,101147.34
2019-04-22T13:53:47.980Z,101152.66
2019-04-22T13:55:45.073Z,101147.73
2019-04-22T13:57:32.600Z,101150.39
2019-04-22T13:59:28.740Z,101152.56
2019-04-22T14:01:43.058Z,101149.13
2019-04-22T14:03:49.175Z,101143.89
2019-04-22T14:05:55.394Z,101145.20
2019-04-22T14:07:57.551Z,101146.77
2019-04-22T14:10:00.227Z,101144.66
2019-04-22T14:12:05.747Z,101142.17
2019-04-22T14:14:05.171Z,101145.08
2019-04-22T14:16:06.918Z,101134.98
2019-04-22T14:18:08.493Z,101145.17
2019-04-22T14:20:11.187Z,101140.52
2019-04-22T14:22:13.809Z,101141.61
2019-04-22T14:24:15.788Z,101146.22
2019-04-22T14:26:17.551Z,101140.58
2019-04-22T14:28:21.126Z,101141.44
2019-04-22T14:30:22.501Z,101146.45
2019-04-22T14:32:27.981Z,101143.72
2019-04-22T14:34:28.517Z,101143.46
2019-04-22T14:36:30.433Z,101155.00
2019-04-22T14:38:32.413Z,101152.83
2019-04-22T14:40:36.202Z,101154.80
2019-04-22T14:42:59.014Z,101160.47
2019-04-22T14:47:15.672Z,101143.59
2019-04-22T14:49:10.453Z,101156.11
2019-04-22T14:51:07.124Z,101151.56
2019-04-22T14:53:15.763Z,101145.73
2019-04-22T14:55:06.106Z,101148.47
2019-04-22T14:57:01.135Z,101148.05
2019-04-22T14:59:02.990Z,101143.28
2019-04-22T15:01:06.695Z,101142.57
2019-04-22T15:03:08.419Z,101150.69
2019-04-22T15:05:12.224Z,101146.55
2019-04-22T15:07:15.005Z,101148.53
2019-04-22T15:09:16.660Z,101147.52
2019-04-22T15:11:19.293Z,101151.75
2019-04-22T15:13:21.218Z,101154.04
2019-04-22T15:15:44.206Z,101147.22
2019-04-22T15:17:45.296Z,101143.75
2019-04-22T15:19:54.378Z,101146.81
2019-04-22T15:21:58.644Z,101145.52
2019-04-22T15:24:02.463Z,101141.75
2019-04-22T15:26:04.578Z,101151.23
2019-04-22T15:28:06.240Z,101154.92
2019-04-22T15:30:09.599Z,101143.33
2019-04-22T15:32:11.729Z,101146.52
2019-04-22T15:34:14.357Z,101155.01
2019-04-22T15:36:15.897Z,101150.30
2019-04-22T15:38:18.313Z,101143.84
2019-04-22T15:40:20.743Z,101151.61
2019-04-22T15:42:28.151Z,101150.77
2019-04-22T15:44:26.095Z,101139.27
2019-04-22T15:46:27.844Z,101144.91
2019-04-22T15:48:32.232Z,101130.44
2019-04-22T15:50:32.843Z,101147.58
2019-04-22T15:52:42.013Z,101136.25
2019-04-22T15:54:37.809Z,101135.33
2019-04-22T15:56:39.214Z,101136.73
2019-04-22T15:58:41.794Z,101131.83
2019-04-22T16:00:54.076Z,101141.44
2019-04-22T16:02:47.799Z,101138.24
2019-04-22T16:04:50.274Z,101139.28
2019-04-22T16:06:52.776Z,101137.33
2019-04-22T16:08:54.341Z,101144.72
2019-04-22T16:10:55.891Z,101138.78
2019-04-22T16:13:07.300Z,101136.95
2019-04-22T16:15:03.102Z,101131.73
2019-04-22T16:17:04.420Z,101133.08
2019-04-22T16:19:06.821Z,101135.60
2019-04-22T16:21:09.048Z,101126.11
2019-04-22T16:23:31.988Z,101127.84
2019-04-22T16:25:51.288Z,101119.00
2019-04-22T16:27:54.424Z,101122.34
2019-04-22T16:29:57.157Z,101108.55
2019-04-22T16:31:58.755Z,101124.16
2019-04-22T16:34:00.529Z,101109.86
2019-04-22T16:36:02.768Z,101119.31
2019-04-22T16:38:04.485Z,101114.73
2019-04-22T16:40:07.192Z,101119.70
2019-04-22T16:42:08.980Z,101120.20
2019-04-22T16:44:10.566Z,101113.46
2019-04-22T16:46:11.992Z,101119.88
2019-04-22T16:48:13.750Z,101115.52
2019-04-22T16:50:15.995Z,101119.84
2019-04-22T16:52:18.309Z,101114.16
2019-04-22T16:54:20.165Z,101121.91
2019-04-22T16:56:22.544Z,101113.73
2019-04-22T16:58:25.141Z,101113.79
2019-04-22T17:00:27.081Z,101111.41
2019-04-22T17:02:49.803Z,101110.66
2019-04-22T17:05:02.024Z,101108.63
2019-04-22T17:07:05.887Z,101113.51
2019-04-22T17:09:08.905Z,101107.73
2019-04-22T17:11:11.746Z,101109.91
2019-04-22T17:13:19.290Z,101113.16
2019-04-22T17:15:18.493Z,101123.42
2019-04-22T17:17:20.318Z,101115.98
2019-04-22T17:19:21.831Z,101115.06
2019-04-22T17:21:23.604Z,101122.25
2019-04-22T17:23:25.594Z,101114.31
2019-04-22T17:25:27.189Z,101123.36
2019-04-22T17:27:30.945Z,101125.84
2019-04-22T17:29:32.436Z,101126.43
2019-04-22T17:31:34.620Z,101129.17
2019-04-22T17:33:37.118Z,101133.94
2019-04-22T17:35:40.160Z,101123.13
2019-04-22T17:37:42.916Z,101129.68
2019-04-22T17:39:57.239Z,101119.86
2019-04-22T17:42:05.366Z,101128.47
2019-04-22T17:44:20.264Z,101116.62
2019-04-22T17:46:15.047Z,101120.44
2019-04-22T17:48:48.862Z,101121.41
2019-04-22T17:50:57.831Z,101113.77
2019-04-22T17:53:02.853Z,101120.06
2019-04-22T17:54:51.605Z,101115.06
2019-04-22T17:57:01.798Z,101115.65
2019-04-22T17:59:02.657Z,101122.31
2019-04-22T18:01:09.197Z,101120.44
2019-04-22T18:03:03.167Z,101119.23
2019-04-22T18:04:59.343Z,101117.78
2019-04-22T18:07:23.416Z,101120.86
2019-04-22T18:09:19.305Z,101115.56
2019-04-22T18:11:28.829Z,101122.42
2019-04-22T18:13:35.706Z,101122.06
2019-04-22T18:15:30.701Z,101118.48
2019-04-22T18:17:37.230Z,101120.17
2019-04-22T18:19:35.050Z,101121.41
2019-04-22T18:21:36.427Z,101124.23
2019-04-22T18:23:29.301Z,101115.50
2019-04-22T18:25:46.784Z,101129.24
2019-04-22T18:27:57.134Z,101118.37
2019-04-22T18:29:51.778Z,101119.11
2019-04-22T18:31:49.005Z,101120.03
2019-04-22T18:33:59.467Z,101121.30
2019-04-22T18:36:01.101Z,101122.13
2019-04-22T18:38:11.296Z,101125.49
2019-04-22T18:40:11.975Z,101121.56
2019-04-22T18:42:09.173Z,101130.72
2019-04-22T18:44:19.838Z,101131.64
2019-04-22T18:46:22.411Z,101130.45
2019-04-22T18:48:17.743Z,101131.39
2019-04-22T18:50:43.121Z,101133.00
2019-04-22T18:52:54.488Z,101131.71
2019-04-22T18:54:56.990Z,101130.44
2019-04-22T18:57:08.006Z,101136.88
2019-04-22T18:59:02.418Z,101136.94
2019-04-22T19:00:54.931Z,101135.95
2019-04-22T19:03:04.870Z,101139.25
2019-04-22T19:05:09.807Z,101143.67
2019-04-22T19:07:32.626Z,101145.69
2019-04-22T19:09:38.642Z,101140.02
2019-04-22T19:11:41.366Z,101146.90
2019-04-22T19:13:56.051Z,101149.30
2019-04-22T19:15:52.767Z,101145.02
2019-04-22T19:17:58.289Z,101144.63
2019-04-22T19:19:49.929Z,101143.36
2019-04-22T19:21:47.625Z,101139.66
2019-04-22T19:23:54.013Z,101138.36
2019-04-22T19:25:52.603Z,101138.37
2019-04-22T19:28:01.230Z,101137.27
2019-04-22T19:30:04.497Z,101136.70
2019-04-22T19:32:06.945Z,101136.91
2019-04-22T19:34:14.390Z,101142.48
2019-04-22T19:36:14.945Z,101139.59
2019-04-22T19:38:10.895Z,101138.94
2019-04-22T19:40:25.910Z,101136.91
2019-04-22T19:42:30.742Z,101135.95
2019-04-22T19:44:25.918Z,101140.25
2019-04-22T19:46:28.568Z,101132.23
2019-04-22T19:48:42.613Z,101132.16
2019-04-22T19:50:46.364Z,101131.91
2019-04-22T19:52:41.857Z,101131.23
2019-04-22T19:54:44.033Z,101131.91
2019-04-22T19:56:38.296Z,101123.33
2019-04-22T19:58:41.465Z,101122.07
2019-04-22T20:00:49.275Z,101124.96
2019-04-22T20:03:16.734Z,101122.38
2019-04-22T20:05:20.337Z,101124.27
2019-04-22T20:07:15.462Z,101123.35
2019-04-22T20:09:33.401Z,101124.02
2019-04-22T20:11:29.654Z,101125.30
2019-04-22T20:13:37.097Z,101125.30
2019-04-22T20:15:32.302Z,101125.23
2019-04-22T20:17:44.000Z,101126.30
2019-04-22T20:19:49.893Z,101117.27
2019-04-22T20:21:46.498Z,101116.82
2019-04-22T20:23:42.028Z,101116.67
2019-04-22T20:25:48.286Z,101114.98
2019-04-22T20:28:01.390Z,101110.71
2019-04-22T20:29:58.106Z,101110.52
2019-04-22T20:32:05.928Z,101110.00
2019-04-22T20:34:18.743Z,101101.29
2019-04-22T20:36:26.863Z,101101.60
2019-04-22T20:38:14.901Z,101097.67
2019-04-22T20:40:20.100Z,101101.39
2019-04-22T20:42:36.258Z,101097.86
2019-04-22T20:44:29.101Z,101091.08
2019-04-22T20:46:24.079Z,101090.39
2019-04-22T20:48:37.612Z,101087.44
2019-04-22T20:50:34.716Z,101089.30
2019-04-22T20:52:47.191Z,101087.56
2019-04-22T20:54:40.752Z,101090.22
2019-04-22T20:56:45.079Z,101081.08
2019-04-22T20:58:54.673Z,101087.81
2019-04-22T21:00:49.497Z,101090.84
2019-04-22T21:02:46.580Z,101083.41
2019-04-22T21:04:50.425Z,101087.66
2019-04-22T21:07:01.324Z,101084.27
2019-04-22T21:09:07.523Z,101084.14
2019-04-22T21:11:04.358Z,101079.86
2019-04-22T21:13:08.656Z,101082.77
2019-04-22T21:15:23.853Z,101084.80
2019-04-22T21:17:17.405Z,101082.80
2019-04-22T21:19:28.090Z,101082.31
2019-04-22T21:21:26.454Z,101084.49
2019-04-22T21:23:22.976Z,101081.20
2019-04-22T21:25:27.717Z,101076.88
2019-04-22T21:27:40.430Z,101083.77
2019-04-22T21:29:33.422Z,101073.02
2019-04-22T21:31:48.303Z,101078.97
2019-04-22T21:33:47.267Z,101074.88
2019-04-22T21:35:59.567Z,101074.66
2019-04-22T21:37:58.302Z,101070.34
2019-04-22T21:39:51.891Z,101069.05
2019-04-22T21:42:03.280Z,101071.36
2019-04-22T21:44:04.018Z,101071.79
2019-04-22T21:46:08.211Z,101070.25
2019-04-22T21:48:24.111Z,101067.97
2019-04-22T21:50:31.037Z,101062.00
2019-04-22T21:52:17.085Z,101065.05
2019-04-22T21:54:22.096Z,101072.29
2019-04-22T21:58:31.774Z,101063.05
2019-04-22T22:00:44.556Z,101066.16
2019-04-22T22:02:52.575Z,101066.56
2019-04-22T22:04:38.415Z,101060.43
2019-04-22T22:06:40.355Z,101064.15
2019-04-22T22:08:51.309Z,101059.44
2019-04-22T22:10:58.375Z,101054.77
2019-04-22T22:13:00.808Z,101056.15
2019-04-22T22:15:04.187Z,101055.72
2019-04-22T22:16:56.234Z,101057.64
2019-04-22T22:19:27.218Z,101059.75
2019-04-22T22:21:48.433Z,101055.16
2019-04-22T22:23:45.635Z,101054.41
2019-04-22T22:25:46.832Z,101055.84
2019-04-22T22:27:46.188Z,101055.69
2019-04-22T22:31:57.861Z,101055.66
2019-04-22T22:34:04.079Z,101047.56
2019-04-22T22:36:00.715Z,101051.19
2019-04-22T22:38:03.009Z,101050.05
2019-04-22T22:39:57.993Z,101050.22
2019-04-22T22:41:52.088Z,101048.27
2019-04-22T22:44:03.336Z,101044.61
2019-04-22T22:46:13.547Z,101042.16
2019-04-22T22:48:39.849Z,101044.03
2019-04-22T22:50:26.023Z,101040.67
2019-04-22T22:54:34.751Z,101038.40
2019-04-22T22:56:42.646Z,101035.04
2019-04-22T22:58:41.349Z,101038.50
2019-04-22T23:00:39.357Z,101032.77
2019-04-22T23:03:03.402Z,101030.25
2019-04-22T23:04:52.795Z,101027.94
2019-04-22T23:06:56.332Z,101030.50
2019-04-22T23:09:00.796Z,101020.95
2019-04-22T23:11:12.060Z,101024.97
2019-04-22T23:13:08.483Z,101022.23
2019-04-22T23:15:07.906Z,101019.83
2019-04-22T23:16:57.301Z,101021.66
2019-04-22T23:19:02.011Z,101018.81
2019-04-22T23:21:10.580Z,101018.56
2019-04-22T23:23:31.407Z,101017.05
2019-04-22T23:25:33.354Z,101013.12
2019-04-22T23:27:40.407Z,101016.36
2019-04-22T23:29:41.183Z,101011.24
2019-04-22T23:31:46.822Z,101008.96
2019-04-22T23:33:58.149Z,101012.23
2019-04-22T23:36:01.517Z,101011.01
2019-04-22T23:38:06.259Z,101005.77
2019-04-22T23:40:26.019Z,101006.72
2019-04-22T23:42:22.239Z,101002.34
2019-04-22T23:44:39.021Z,101000.78
2019-04-22T23:46:21.591Z,100995.09
2019-04-22T23:48:20.712Z,100994.55
2019-04-22T23:50:34.053Z,100997.78
2019-04-22T23:52:35.642Z,100997.80
2019-04-22T23:54:46.516Z,100991.14
2019-04-22T23:56:43.543Z,100988.95
2019-04-22T23:58:52.891Z,100988.59
